createdAt,value
2023-05-03T00:00:15.660Z,214.73
2023-05-03T00:01:01.035Z,211.73
2023-05-03T00:01:45.889Z,215.77
2023-05-03T00:02:31.063Z,217.73
2023-05-03T00:03:16.024Z,221.72
2023-05-03T00:04:01.505Z,222.72
2023-05-03T00:04:46.340Z,222.72
2023-05-03T00:05:31.439Z,221.72
2023-05-03T00:06:16.285Z,218.73
2023-05-03T00:07:02.120Z,225.72
2023-05-03T00:07:46.810Z,226.60
2023-05-03T00:08:31.794Z,211.78
2023-05-03T00:09:16.655Z,207.78
2023-05-03T00:10:02.012Z,212.63
2023-05-03T00:10:46.752Z,210.74
2023-05-03T00:11:31.608Z,213.73
2023-05-03T00:12:16.866Z,205.74
2023-05-03T00:13:01.756Z,205.74
2023-05-03T00:13:46.577Z,210.74
2023-05-03T00:14:31.943Z,232.75
2023-05-03T00:15:17.604Z,225.80
2023-05-03T00:16:02.402Z,226.83
2023-05-03T00:16:47.227Z,220.86
2023-05-03T00:17:32.084Z,229.86
2023-05-03T00:18:17.215Z,219.81
2023-05-03T00:19:02.169Z,225.86
2023-05-03T00:19:47.585Z,214.87
2023-05-03T00:20:32.901Z,216.84
2023-05-03T00:21:17.677Z,222.84
2023-05-03T00:22:02.518Z,222.84
2023-05-03T00:22:47.470Z,224.80
2023-05-03T00:23:32.432Z,224.80
2023-05-03T00:24:17.361Z,216.84
2023-05-03T00:25:02.991Z,211.84
2023-05-03T00:25:47.367Z,216.84
2023-05-03T00:26:32.940Z,200.79
2023-05-03T00:27:18.336Z,200.79
2023-05-03T00:28:02.861Z,198.85
2023-05-03T00:28:47.810Z,221.84
2023-05-03T00:29:32.968Z,194.83
2023-05-03T00:30:17.925Z,199.82
2023-05-03T00:31:02.946Z,196.75
2023-05-03T00:31:47.829Z,197.83
2023-05-03T00:32:32.950Z,188.83
2023-05-03T00:33:17.945Z,193.83
2023-05-03T00:34:03.532Z,206.85
2023-05-03T00:34:48.154Z,203.85
2023-05-03T00:35:33.218Z,192.86
2023-05-03T00:36:18.307Z,209.85
2023-05-03T00:37:03.527Z,195.83
2023-05-03T00:37:48.428Z,208.82
2023-05-03T00:38:33.463Z,195.83
2023-05-03T00:39:18.764Z,195.83
2023-05-03T00:40:04.100Z,201.82
2023-05-03T00:40:48.508Z,200.85
2023-05-03T00:41:33.793Z,178.95
2023-05-03T00:42:18.615Z,183.96
2023-05-03T00:43:03.683Z,184.95
2023-05-03T00:43:48.735Z,178.91
2023-05-03T00:44:33.813Z,187.94
2023-05-03T00:45:18.763Z,184.94
2023-05-03T00:46:15.254Z,185.94
2023-05-03T00:46:48.695Z,188.90
2023-05-03T00:47:33.959Z,168.88
2023-05-03T00:48:19.202Z,176.89
2023-05-03T00:49:04.352Z,158.92
2023-05-03T00:49:49.697Z,148.91
2023-05-03T00:50:33.933Z,139.90
2023-05-03T00:51:18.888Z,118.91
2023-05-03T00:52:04.806Z,255.81
2023-05-03T00:52:49.015Z,274.83
2023-05-03T00:53:34.880Z,281.83
2023-05-03T00:54:19.525Z,286.85
2023-05-03T00:55:05.804Z,279.86
2023-05-03T00:55:49.330Z,268.80
2023-05-03T00:56:44.045Z,306.84
2023-05-03T00:57:19.762Z,282.83
2023-05-03T00:58:04.956Z,298.90
2023-05-03T00:58:50.012Z,286.79
2023-05-03T00:59:34.801Z,258.91
2023-05-03T01:00:20.190Z,302.85
2023-05-03T01:01:04.921Z,301.85
2023-05-03T01:01:50.362Z,264.87
2023-05-03T01:02:35.312Z,258.84
2023-05-03T01:03:20.254Z,235.83
2023-05-03T01:04:05.216Z,235.83
2023-05-03T01:04:50.359Z,235.79
2023-05-03T01:05:35.208Z,245.74
2023-05-03T01:06:20.372Z,255.84
2023-05-03T01:07:05.395Z,238.85
2023-05-03T01:07:50.609Z,250.85
2023-05-03T01:08:35.532Z,249.74
2023-05-03T01:09:20.692Z,244.82
2023-05-03T01:10:06.835Z,242.79
2023-05-03T01:10:50.832Z,236.79
2023-05-03T01:11:35.742Z,215.81
2023-05-03T01:12:20.777Z,246.78
2023-05-03T01:13:06.170Z,244.64
2023-05-03T01:13:51.548Z,234.83
2023-05-03T01:14:35.855Z,221.84
2023-05-03T01:15:20.922Z,215.84
2023-05-03T01:16:06.444Z,221.84
2023-05-03T01:16:51.211Z,204.85
2023-05-03T01:17:36.380Z,203.82
2023-05-03T01:18:21.307Z,213.84
2023-05-03T01:19:06.794Z,200.85
2023-05-03T01:19:51.125Z,212.89
2023-05-03T01:20:36.186Z,220.89
2023-05-03T01:21:21.259Z,208.89
2023-05-03T01:22:06.546Z,213.87
2023-05-03T01:22:51.700Z,205.87
2023-05-03T01:23:36.391Z,205.82
2023-05-03T01:24:21.824Z,203.88
2023-05-03T01:25:06.663Z,204.87
2023-05-03T01:25:51.599Z,187.86
2023-05-03T01:26:36.793Z,202.75
2023-05-03T01:27:22.110Z,203.58
2023-05-03T01:28:06.971Z,198.70
2023-05-03T01:28:52.217Z,199.88
2023-05-03T01:29:36.781Z,197.88
2023-05-03T01:30:21.943Z,211.87
2023-05-03T01:31:07.016Z,198.88
2023-05-03T01:31:51.932Z,176.84
2023-05-03T01:32:37.560Z,96.94
2023-05-03T01:33:22.037Z,109.93
2023-05-03T01:34:07.348Z,237.85
2023-05-03T01:34:52.378Z,276.83
2023-05-03T01:35:37.219Z,264.72
2023-05-03T01:36:22.294Z,264.80
2023-05-03T01:37:08.046Z,264.80
2023-05-03T01:37:52.619Z,235.83
2023-05-03T01:38:37.349Z,132.88
2023-05-03T01:39:22.393Z,138.88
2023-05-03T01:40:07.706Z,175.84
2023-05-03T01:40:52.711Z,174.85
2023-05-03T01:41:37.983Z,182.84
2023-05-03T01:42:22.417Z,182.84
2023-05-03T01:43:08.236Z,185.86
2023-05-03T01:43:52.857Z,194.86
2023-05-03T01:44:37.895Z,184.86
2023-05-03T01:45:23.583Z,184.86
2023-05-03T01:46:08.183Z,193.76
2023-05-03T01:46:52.863Z,189.86
2023-05-03T01:47:37.837Z,185.77
2023-05-03T01:48:22.976Z,192.83
2023-05-03T01:49:08.100Z,198.82
2023-05-03T01:49:53.333Z,206.85
2023-05-03T01:50:38.034Z,194.86
2023-05-03T01:51:23.089Z,183.86
2023-05-03T01:52:08.508Z,193.86
2023-05-03T01:52:53.254Z,194.86
2023-05-03T01:53:38.362Z,205.85
2023-05-03T01:54:23.270Z,201.75
2023-05-03T01:55:08.602Z,197.85
2023-05-03T01:55:53.348Z,197.85
2023-05-03T01:56:38.493Z,164.88
2023-05-03T01:57:24.377Z,167.88
2023-05-03T01:58:09.020Z,174.87
2023-05-03T01:58:53.778Z,163.88
2023-05-03T01:59:38.757Z,174.87
2023-05-03T02:00:23.672Z,184.84
2023-05-03T02:01:09.058Z,181.84
2023-05-03T02:01:53.988Z,189.83
2023-05-03T02:02:39.759Z,183.84
2023-05-03T02:03:24.006Z,179.84
2023-05-03T02:04:09.427Z,179.84
2023-05-03T02:04:55.161Z,180.87
2023-05-03T02:05:39.253Z,171.87
2023-05-03T02:06:24.493Z,149.87
2023-05-03T02:07:09.593Z,158.86
2023-05-03T02:07:54.568Z,158.86
2023-05-03T02:08:39.704Z,158.86
2023-05-03T02:09:25.093Z,170.85
2023-05-03T02:10:09.746Z,160.86
2023-05-03T02:10:54.765Z,157.86
2023-05-03T02:11:39.627Z,152.84
2023-05-03T02:12:24.574Z,185.80
2023-05-03T02:13:09.638Z,168.82
2023-05-03T02:13:54.913Z,180.81
2023-05-03T02:14:39.759Z,163.83
2023-05-03T02:15:24.964Z,171.82
2023-05-03T02:16:10.675Z,182.81
2023-05-03T02:16:55.492Z,182.81
2023-05-03T02:17:40.083Z,208.78
2023-05-03T02:18:25.145Z,208.78
2023-05-03T02:19:10.982Z,199.79
2023-05-03T02:19:55.652Z,199.79
2023-05-03T02:20:40.192Z,195.83
2023-05-03T02:21:25.260Z,189.83
2023-05-03T02:22:10.507Z,200.82
2023-05-03T02:22:55.686Z,192.83
2023-05-03T02:23:40.728Z,201.70
2023-05-03T02:24:25.684Z,207.78
2023-05-03T02:25:10.997Z,193.80
2023-05-03T02:25:56.020Z,205.78
2023-05-03T02:26:40.927Z,189.80
2023-05-03T02:27:25.803Z,189.72
2023-05-03T02:28:11.480Z,178.81
2023-05-03T02:28:55.937Z,178.81
2023-05-03T02:29:41.074Z,180.81
2023-05-03T02:30:26.006Z,175.81
2023-05-03T02:31:11.134Z,186.80
2023-05-03T02:31:56.253Z,194.79
2023-05-03T02:32:42.090Z,166.82
2023-05-03T02:33:26.476Z,161.83
2023-05-03T02:34:11.536Z,158.76
2023-05-03T02:34:56.570Z,189.83
2023-05-03T02:35:41.933Z,189.83
2023-05-03T02:36:26.714Z,169.85
2023-05-03T02:37:11.657Z,183.84
2023-05-03T02:37:56.973Z,170.85
2023-05-03T02:38:41.653Z,177.84
2023-05-03T02:39:26.978Z,175.74
2023-05-03T02:40:11.986Z,182.81
2023-05-03T02:40:57.021Z,193.80
2023-05-03T02:41:41.988Z,181.81
2023-05-03T02:42:27.302Z,187.80
2023-05-03T02:43:12.213Z,170.82
2023-05-03T02:43:56.737Z,193.80
2023-05-03T02:44:42.113Z,182.73
2023-05-03T02:45:27.085Z,183.81
2023-05-03T02:46:12.381Z,175.74
2023-05-03T02:46:57.183Z,190.80
2023-05-03T02:47:42.276Z,175.81
2023-05-03T02:48:27.596Z,202.79
2023-05-03T02:49:12.541Z,187.80
2023-05-03T02:49:57.598Z,184.80
2023-05-03T02:50:42.466Z,181.81
2023-05-03T02:51:28.041Z,202.79
2023-05-03T02:52:12.917Z,197.79
2023-05-03T02:52:57.824Z,197.79
2023-05-03T02:53:42.673Z,201.79
2023-05-03T02:54:27.838Z,203.78
2023-05-03T02:55:12.818Z,197.79
2023-05-03T02:56:03.802Z,197.79
2023-05-03T02:56:43.220Z,201.79
2023-05-03T02:57:28.209Z,201.70
2023-05-03T02:58:13.116Z,199.79
2023-05-03T02:58:58.168Z,209.78
2023-05-03T02:59:43.239Z,203.78
2023-05-03T03:00:28.076Z,191.71
2023-05-03T03:01:13.607Z,196.79
2023-05-03T03:01:58.328Z,211.81
2023-05-03T03:02:43.317Z,208.82
2023-05-03T03:03:28.615Z,206.78
2023-05-03T03:04:13.472Z,202.85
2023-05-03T03:04:58.450Z,181.89
2023-05-03T03:05:43.579Z,168.88
2023-05-03T03:06:28.937Z,188.90
2023-05-03T03:07:13.587Z,179.87
2023-05-03T03:07:59.168Z,194.88
2023-05-03T03:08:43.406Z,186.89
2023-05-03T03:09:28.449Z,140.91
2023-05-03T03:10:14.121Z,140.91
2023-05-03T03:10:58.912Z,205.87
2023-05-03T03:11:43.822Z,205.87
2023-05-03T03:12:29.225Z,205.87
2023-05-03T03:13:14.449Z,205.87
2023-05-03T03:14:00.088Z,205.87
2023-05-03T03:14:44.869Z,205.87
2023-05-03T03:15:29.639Z,205.87
2023-05-03T03:16:14.830Z,205.87
2023-05-03T03:16:59.641Z,205.87
2023-05-03T03:17:44.513Z,205.87
2023-05-03T03:18:30.162Z,205.87
2023-05-03T03:19:14.903Z,205.87
2023-05-03T03:20:00.088Z,205.87
2023-05-03T03:20:45.177Z,205.87
2023-05-03T03:21:30.347Z,205.87
2023-05-03T03:22:15.129Z,205.87
2023-05-03T03:23:00.125Z,205.87
2023-05-03T03:23:45.267Z,205.87
2023-05-03T03:24:30.714Z,205.87
2023-05-03T03:25:15.474Z,205.87
2023-05-03T03:26:00.217Z,205.87
2023-05-03T03:26:45.167Z,90.26
2023-05-03T03:27:30.113Z,117.39
2023-05-03T03:28:15.203Z,79.03
2023-05-03T03:29:00.126Z,105.05
2023-05-03T03:29:45.599Z,105.05
2023-05-03T03:30:30.562Z,105.05
2023-05-03T03:31:16.088Z,58.82
2023-05-03T03:32:00.573Z,84.70
2023-05-03T03:32:46.177Z,84.70
2023-05-03T03:33:32.625Z,84.70
2023-05-03T03:34:15.585Z,84.70
2023-05-03T03:35:00.992Z,84.70
2023-05-03T03:35:46.664Z,84.70
2023-05-03T03:36:31.952Z,84.70
2023-05-03T03:37:16.168Z,84.70
2023-05-03T03:38:01.124Z,84.70
2023-05-03T03:38:46.291Z,84.70
2023-05-03T03:39:31.186Z,84.70
2023-05-03T03:40:16.204Z,84.70
2023-05-03T03:41:01.858Z,84.70
2023-05-03T03:41:46.957Z,84.70
2023-05-03T03:42:31.275Z,244.78
2023-05-03T03:43:15.896Z,222.89
2023-05-03T03:44:01.455Z,205.12
2023-05-03T03:44:46.227Z,193.98
2023-05-03T03:45:31.184Z,193.98
2023-05-03T03:46:17.163Z,226.88
2023-05-03T03:47:01.420Z,231.88
2023-05-03T03:47:46.275Z,250.87
2023-05-03T03:48:31.603Z,232.86
2023-05-03T03:49:16.654Z,243.88
2023-05-03T03:50:02.396Z,229.86
2023-05-03T03:50:46.973Z,233.86
2023-05-03T03:51:32.159Z,248.85
2023-05-03T03:52:16.668Z,228.88
2023-05-03T03:53:01.544Z,231.88
2023-05-03T03:53:46.804Z,235.88
2023-05-03T03:54:31.850Z,235.88
2023-05-03T03:55:17.426Z,227.86
2023-05-03T03:56:01.897Z,227.86
2023-05-03T03:56:47.240Z,238.88
2023-05-03T03:57:32.341Z,238.88
2023-05-03T03:58:17.567Z,247.91
2023-05-03T03:59:02.180Z,252.96
2023-05-03T03:59:47.067Z,239.95
2023-05-03T04:00:32.408Z,233.97
2023-05-03T04:01:17.289Z,237.98
2023-05-03T04:02:02.371Z,246.96
2023-05-03T04:02:47.867Z,238.96
2023-05-03T04:03:32.593Z,241.96
2023-05-03T04:04:17.738Z,249.93
2023-05-03T04:05:02.544Z,267.95
2023-05-03T04:05:47.305Z,227.95
2023-05-03T04:06:32.836Z,260.94
2023-05-03T04:07:17.698Z,262.94
2023-05-03T04:08:03.265Z,259.94
2023-05-03T04:08:48.385Z,263.94
2023-05-03T04:09:32.864Z,263.94
2023-05-03T04:10:18.316Z,268.94
2023-05-03T04:11:03.484Z,232.95
2023-05-03T04:11:48.618Z,253.93
2023-05-03T04:12:33.201Z,289.93
2023-05-03T04:13:18.150Z,266.94
2023-05-03T04:14:03.483Z,260.94
2023-05-03T04:14:48.820Z,271.92
2023-05-03T04:15:33.243Z,243.92
2023-05-03T04:16:18.196Z,265.91
2023-05-03T04:17:03.531Z,265.91
2023-05-03T04:17:48.259Z,243.88
2023-05-03T04:18:33.054Z,232.92
2023-05-03T04:19:19.116Z,238.92
2023-05-03T04:20:03.549Z,246.85
2023-05-03T04:20:48.522Z,235.92
2023-05-03T04:21:33.672Z,235.92
2023-05-03T04:22:18.847Z,239.88
2023-05-03T04:23:03.489Z,252.87
2023-05-03T04:23:48.950Z,264.87
2023-05-03T04:24:33.497Z,245.92
2023-05-03T04:25:18.605Z,258.93
2023-05-03T04:26:05.080Z,257.93
2023-05-03T04:26:48.924Z,277.92
2023-05-03T04:27:34.957Z,246.94
2023-05-03T04:28:18.816Z,246.94
2023-05-03T04:29:03.986Z,258.94
2023-05-03T04:29:48.780Z,251.94
2023-05-03T04:30:33.984Z,250.94
2023-05-03T04:31:18.959Z,239.95
2023-05-03T04:32:04.708Z,229.95
2023-05-03T04:32:49.536Z,251.94
2023-05-03T04:33:33.966Z,247.94
2023-05-03T04:34:19.133Z,238.95
2023-05-03T04:35:04.504Z,247.96
2023-05-03T04:35:49.442Z,244.96
2023-05-03T04:36:34.551Z,251.96
2023-05-03T04:37:19.494Z,247.96
2023-05-03T04:38:04.806Z,240.96
2023-05-03T04:38:50.167Z,218.95
2023-05-03T04:39:34.527Z,214.95
2023-05-03T04:40:19.584Z,261.94
2023-05-03T04:41:04.834Z,243.94
2023-05-03T04:41:49.737Z,247.94
2023-05-03T04:42:34.678Z,242.94
2023-05-03T04:43:19.610Z,242.94
2023-05-03T04:44:05.779Z,266.94
2023-05-03T04:44:49.713Z,268.94
2023-05-03T04:45:35.067Z,232.93
2023-05-03T04:46:20.142Z,239.93
2023-05-03T04:47:05.201Z,251.87
2023-05-03T04:47:49.960Z,253.94
2023-05-03T04:48:35.815Z,249.91
2023-05-03T04:49:20.505Z,271.95
2023-05-03T04:50:05.982Z,263.95
2023-05-03T04:50:50.471Z,267.95
2023-05-03T04:51:35.484Z,244.95
2023-05-03T04:52:20.738Z,252.93
2023-05-03T04:53:05.857Z,269.95
2023-05-03T04:53:50.696Z,270.95
2023-05-03T04:54:35.770Z,269.95
2023-05-03T04:55:20.646Z,276.96
2023-05-03T04:56:05.881Z,231.95
2023-05-03T04:56:50.977Z,246.95
2023-05-03T04:57:35.973Z,220.96
2023-05-03T04:58:20.963Z,267.95
2023-05-03T04:59:05.811Z,251.93
2023-05-03T04:59:50.942Z,269.94
2023-05-03T05:00:36.506Z,248.91
2023-05-03T05:01:21.056Z,231.95
2023-05-03T05:02:07.067Z,231.95
2023-05-03T05:02:51.124Z,291.95
2023-05-03T05:03:36.356Z,271.95
2023-05-03T05:04:23.636Z,270.94
2023-05-03T05:05:06.944Z,251.96
2023-05-03T05:05:51.539Z,251.96
2023-05-03T05:06:37.116Z,251.96
2023-05-03T05:07:21.559Z,264.96
2023-05-03T05:08:06.888Z,257.96
2023-05-03T05:08:51.389Z,246.96
2023-05-03T05:09:36.876Z,238.96
2023-05-03T05:10:22.319Z,238.96
2023-05-03T05:11:07.409Z,259.96
2023-05-03T05:11:52.212Z,254.96
2023-05-03T05:12:37.209Z,260.96
2023-05-03T05:13:22.078Z,251.96
2023-05-03T05:14:07.417Z,245.96
2023-05-03T05:14:51.866Z,255.98
2023-05-03T05:15:37.447Z,253.95
2023-05-03T05:16:22.346Z,257.98
2023-05-03T05:17:07.602Z,249.98
2023-05-03T05:17:52.880Z,257.98
2023-05-03T05:18:37.396Z,238.98
2023-05-03T05:19:22.504Z,265.97
2023-05-03T05:20:07.569Z,228.98
2023-05-03T05:20:52.725Z,245.96
2023-05-03T05:21:37.703Z,244.96
2023-05-03T05:22:22.720Z,261.96
2023-05-03T05:23:08.036Z,254.98
2023-05-03T05:23:52.758Z,255.96
2023-05-03T05:24:38.007Z,267.96
2023-05-03T05:25:22.900Z,249.94
2023-05-03T05:26:08.141Z,250.98
2023-05-03T05:26:53.320Z,241.98
2023-05-03T05:27:38.130Z,250.98
2023-05-03T05:28:23.454Z,248.98
2023-05-03T05:29:08.540Z,255.98
2023-05-03T05:29:53.321Z,261.98
2023-05-03T05:30:38.519Z,244.98
2023-05-03T05:31:23.443Z,262.98
2023-05-03T05:32:08.305Z,233.98
2023-05-03T05:32:53.658Z,260.98
2023-05-03T05:33:38.474Z,219.98
2023-05-03T05:34:23.498Z,262.98
2023-05-03T05:35:08.590Z,246.96
2023-05-03T05:35:53.561Z,251.96
2023-05-03T05:36:38.596Z,230.97
2023-05-03T05:37:23.755Z,233.95
2023-05-03T05:38:08.704Z,246.96
2023-05-03T05:38:53.768Z,247.96
2023-05-03T05:39:39.236Z,266.97
2023-05-03T05:40:23.674Z,258.98
2023-05-03T05:41:08.770Z,241.98
2023-05-03T05:41:54.106Z,240.98
2023-05-03T05:42:39.002Z,238.96
2023-05-03T05:43:23.935Z,234.98
2023-05-03T05:44:09.286Z,211.98
2023-05-03T05:44:54.116Z,229.98
2023-05-03T05:45:39.215Z,239.98
2023-05-03T05:46:24.436Z,131.77
2023-05-03T05:47:10.033Z,121.37
2023-05-03T05:47:54.322Z,108.88
2023-05-03T05:48:39.203Z,210.98
2023-05-03T05:49:24.633Z,214.98
2023-05-03T05:50:16.701Z,235.99
2023-05-03T05:50:54.464Z,253.99
2023-05-03T05:51:39.444Z,224.99
2023-05-03T05:52:24.675Z,238.98
2023-05-03T05:53:09.998Z,238.98
2023-05-03T05:53:54.796Z,248.99
2023-05-03T05:54:39.669Z,241.99
2023-05-03T05:55:25.096Z,233.99
2023-05-03T05:56:09.862Z,227.99
2023-05-03T05:56:54.921Z,95.92
2023-05-03T05:57:39.975Z,109.12
2023-05-03T05:58:25.177Z,237.99
2023-05-03T05:59:09.997Z,236.99
2023-05-03T05:59:55.164Z,249.99
2023-05-03T06:00:39.893Z,252.99
2023-05-03T06:01:25.578Z,252.99
2023-05-03T06:02:10.414Z,230.99
2023-05-03T06:02:55.864Z,230.98
2023-05-03T06:03:40.038Z,220.98
2023-05-03T06:04:25.639Z,240.98
2023-05-03T06:05:11.173Z,226.98
2023-05-03T06:05:55.453Z,222.99
2023-05-03T06:06:42.317Z,228.99
2023-05-03T06:07:25.766Z,233.99
2023-05-03T06:08:10.678Z,231.99
2023-05-03T06:08:55.630Z,253.99
2023-05-03T06:09:40.640Z,229.98
2023-05-03T06:10:25.884Z,251.98
2023-05-03T06:11:10.589Z,228.98
2023-05-03T06:11:55.847Z,240.96
2023-05-03T06:12:41.319Z,251.98
2023-05-03T06:13:26.350Z,252.98
2023-05-03T06:14:11.442Z,243.98
2023-05-03T06:15:02.803Z,242.98
2023-05-03T06:15:41.233Z,242.98
2023-05-03T06:16:27.600Z,260.98
2023-05-03T06:17:11.620Z,249.98
2023-05-03T06:17:56.363Z,245.98
2023-05-03T06:18:41.368Z,248.98
2023-05-03T06:19:26.112Z,235.98
2023-05-03T06:20:11.381Z,255.98
2023-05-03T06:20:56.549Z,229.99
2023-05-03T06:21:41.590Z,255.99
2023-05-03T06:22:27.270Z,245.99
2023-05-03T06:23:11.904Z,257.98
2023-05-03T06:23:56.850Z,249.99
2023-05-03T06:24:41.606Z,246.99
2023-05-03T06:25:27.076Z,238.98
2023-05-03T06:26:11.915Z,260.98
2023-05-03T06:26:57.004Z,266.98
2023-05-03T06:27:42.128Z,265.98
2023-05-03T06:28:27.398Z,264.98
2023-05-03T06:29:12.345Z,248.98
2023-05-03T06:29:57.609Z,242.98
2023-05-03T06:30:42.567Z,218.98
2023-05-03T06:31:27.796Z,218.98
2023-05-03T06:32:12.484Z,244.99
2023-05-03T06:32:57.539Z,238.99
2023-05-03T06:33:43.056Z,239.99
2023-05-03T06:34:28.358Z,239.99
2023-05-03T06:35:13.008Z,215.99
2023-05-03T06:35:58.290Z,215.99
2023-05-03T06:36:42.701Z,231.99
2023-05-03T06:37:28.184Z,228.98
2023-05-03T06:38:12.723Z,233.98
2023-05-03T06:38:58.284Z,233.98
2023-05-03T06:39:43.340Z,233.98
2023-05-03T06:40:28.339Z,218.98
2023-05-03T06:41:13.603Z,218.98
2023-05-03T06:41:58.228Z,217.98
2023-05-03T06:42:43.588Z,221.98
2023-05-03T06:43:28.484Z,234.98
2023-05-03T06:44:13.410Z,231.98
2023-05-03T06:44:58.780Z,231.98
2023-05-03T06:45:44.733Z,201.98
2023-05-03T06:46:28.780Z,201.98
2023-05-03T06:47:14.031Z,201.98
2023-05-03T06:47:59.564Z,201.98
2023-05-03T06:48:45.599Z,201.98
2023-05-03T06:49:28.968Z,97.99
2023-05-03T06:50:13.865Z,108.88
2023-05-03T06:50:58.890Z,97.28
2023-05-03T06:51:44.056Z,103.24
2023-05-03T06:52:28.994Z,100.09
2023-05-03T06:53:13.960Z,112.07
2023-05-03T06:53:59.106Z,109.42
2023-05-03T06:54:44.164Z,103.24
2023-05-03T06:55:28.911Z,104.10
2023-05-03T06:56:14.585Z,104.10
2023-05-03T06:56:59.545Z,104.10
2023-05-03T06:57:44.294Z,119.04
2023-05-03T06:58:29.773Z,104.96
2023-05-03T06:59:14.621Z,91.57
2023-05-03T06:59:59.664Z,91.57
2023-05-03T07:00:45.650Z,92.32
2023-05-03T07:01:29.704Z,92.32
2023-05-03T07:02:15.149Z,92.32
2023-05-03T07:02:59.936Z,92.32
2023-05-03T07:03:45.396Z,92.32
2023-05-03T07:04:29.994Z,92.32
2023-05-03T07:05:15.155Z,92.32
2023-05-03T07:06:00.228Z,92.32
2023-05-03T07:06:56.087Z,92.32
2023-05-03T07:07:30.429Z,92.32
2023-05-03T07:08:15.533Z,92.32
2023-05-03T07:09:00.376Z,92.32
2023-05-03T07:09:45.733Z,92.32
2023-05-03T07:10:31.170Z,92.32
2023-05-03T07:11:15.720Z,92.32
2023-05-03T07:12:00.670Z,92.32
2023-05-03T07:12:46.283Z,92.32
2023-05-03T07:13:30.882Z,92.32
2023-05-03T07:14:16.061Z,92.32
2023-05-03T07:15:00.794Z,92.32
2023-05-03T07:15:46.488Z,92.32
2023-05-03T07:16:30.940Z,92.32
2023-05-03T07:17:16.009Z,92.32
2023-05-03T07:18:01.386Z,92.32
2023-05-03T07:18:46.201Z,92.32
2023-05-03T07:19:31.334Z,92.32
2023-05-03T07:20:16.392Z,92.32
2023-05-03T07:21:01.629Z,92.32
2023-05-03T07:21:46.526Z,92.32
2023-05-03T07:22:31.469Z,92.32
2023-05-03T07:23:17.093Z,92.32
2023-05-03T07:24:01.667Z,92.32
2023-05-03T07:24:46.753Z,92.32
2023-05-03T07:25:31.813Z,92.32
2023-05-03T07:26:16.739Z,92.32
2023-05-03T07:27:01.821Z,92.32
2023-05-03T07:27:46.601Z,92.32
2023-05-03T07:28:31.729Z,92.32
2023-05-03T07:29:16.962Z,92.32
2023-05-03T07:30:02.241Z,92.32
2023-05-03T07:30:48.951Z,92.32
2023-05-03T07:31:33.613Z,92.32
2023-05-03T07:32:17.346Z,202.98
2023-05-03T07:33:02.182Z,202.98
2023-05-03T07:33:47.613Z,202.98
2023-05-03T07:34:32.356Z,202.98
2023-05-03T07:35:17.411Z,202.98
2023-05-03T07:36:02.372Z,202.98
2023-05-03T07:36:47.659Z,202.98
2023-05-03T07:37:32.466Z,202.98
2023-05-03T07:38:18.049Z,202.98
2023-05-03T07:39:02.715Z,202.98
2023-05-03T07:39:47.561Z,202.98
2023-05-03T07:40:34.426Z,202.98
2023-05-03T07:41:17.352Z,202.98
2023-05-03T07:42:02.511Z,202.98
2023-05-03T07:42:47.168Z,202.98
2023-05-03T07:43:32.871Z,202.98
2023-05-03T07:44:18.307Z,202.98
2023-05-03T07:45:02.715Z,202.98
2023-05-03T07:45:47.863Z,202.98
2023-05-03T07:46:32.955Z,202.98
2023-05-03T07:47:18.238Z,202.98
2023-05-03T07:48:03.208Z,202.98
2023-05-03T07:48:48.225Z,202.98
2023-05-03T07:49:33.389Z,202.98
2023-05-03T07:50:18.376Z,202.98
2023-05-03T07:51:03.201Z,202.98
2023-05-03T07:51:47.892Z,202.98
2023-05-03T07:52:33.239Z,202.98
2023-05-03T07:53:18.159Z,202.98
2023-05-03T07:54:03.425Z,202.98
2023-05-03T07:54:48.376Z,202.98
2023-05-03T07:55:33.735Z,202.98
2023-05-03T07:56:18.722Z,202.98
2023-05-03T07:57:03.901Z,202.98
2023-05-03T07:57:49.005Z,202.98
2023-05-03T07:58:40.099Z,202.98
2023-05-03T07:59:18.791Z,202.98
2023-05-03T08:00:04.239Z,202.98
2023-05-03T08:00:49.134Z,202.98
2023-05-03T08:01:34.082Z,202.98
2023-05-03T08:02:18.915Z,202.98
2023-05-03T08:03:04.050Z,114.51
2023-05-03T08:03:49.308Z,112.60
2023-05-03T08:04:34.365Z,112.60
2023-05-03T08:05:19.340Z,112.60
2023-05-03T08:06:04.323Z,112.60
2023-05-03T08:06:49.721Z,112.60
2023-05-03T08:07:34.925Z,112.60
2023-05-03T08:08:19.544Z,112.60
2023-05-03T08:09:05.044Z,112.60
2023-05-03T08:09:49.608Z,112.60
2023-05-03T08:10:34.863Z,112.60
2023-05-03T08:11:19.829Z,112.60
2023-05-03T08:12:05.043Z,112.60
2023-05-03T08:12:50.498Z,112.60
2023-05-03T08:13:34.792Z,112.60
2023-05-03T08:14:19.943Z,112.60
2023-05-03T08:15:05.155Z,112.60
2023-05-03T08:15:50.754Z,112.60
2023-05-03T08:16:35.327Z,112.60
2023-05-03T08:17:20.294Z,112.60
2023-05-03T08:18:05.544Z,112.60
2023-05-03T08:18:50.216Z,112.60
2023-05-03T08:19:35.439Z,112.60
2023-05-03T08:20:20.521Z,112.60
2023-05-03T08:21:05.830Z,112.60
2023-05-03T08:21:50.711Z,112.60
2023-05-03T08:22:35.366Z,112.60
2023-05-03T08:23:23.847Z,112.60
2023-05-03T08:24:05.551Z,112.60
2023-05-03T08:24:52.187Z,112.60
2023-05-03T08:25:36.183Z,112.60
2023-05-03T08:26:20.577Z,112.60
2023-05-03T08:27:06.264Z,112.60
2023-05-03T08:27:50.756Z,112.60
2023-05-03T08:28:36.192Z,112.60
2023-05-03T08:29:20.969Z,112.60
2023-05-03T08:30:06.389Z,112.60
2023-05-03T08:30:51.320Z,112.60
2023-05-03T08:31:36.538Z,112.60
2023-05-03T08:32:21.565Z,112.60
2023-05-03T08:33:06.618Z,112.60
2023-05-03T08:33:51.533Z,112.60
2023-05-03T08:34:36.674Z,112.60
2023-05-03T08:35:21.560Z,112.60
2023-05-03T08:36:07.016Z,112.60
2023-05-03T08:36:51.649Z,112.60
2023-05-03T08:37:37.161Z,112.60
2023-05-03T08:38:22.200Z,112.60
2023-05-03T08:39:06.986Z,112.60
2023-05-03T08:39:51.675Z,112.60
2023-05-03T08:40:36.818Z,97.40
2023-05-03T08:41:23.641Z,97.40
2023-05-03T08:42:07.247Z,97.40
2023-05-03T08:42:52.807Z,97.40
2023-05-03T08:43:37.254Z,97.40
2023-05-03T08:44:21.899Z,97.40
2023-05-03T08:45:07.702Z,97.40
2023-05-03T08:45:52.415Z,97.40
2023-05-03T08:46:37.503Z,97.40
2023-05-03T08:47:22.696Z,97.40
2023-05-03T08:48:07.809Z,97.40
2023-05-03T08:48:52.436Z,97.40
2023-05-03T08:49:38.021Z,97.40
2023-05-03T08:50:23.645Z,97.40
2023-05-03T08:51:08.051Z,97.40
2023-05-03T08:51:52.862Z,97.40
2023-05-03T08:52:37.788Z,97.40
2023-05-03T08:53:22.928Z,97.40
2023-05-03T08:54:08.115Z,97.40
2023-05-03T08:54:52.990Z,97.40
2023-05-03T08:55:37.992Z,97.40
2023-05-03T08:56:23.120Z,97.40
2023-05-03T08:57:08.398Z,97.40
2023-05-03T08:57:53.321Z,97.40
2023-05-03T08:58:37.888Z,97.40
2023-05-03T08:59:23.325Z,97.40
2023-05-03T09:00:08.498Z,97.40
2023-05-03T09:00:53.558Z,97.40
2023-05-03T09:01:38.427Z,97.40
2023-05-03T09:02:23.712Z,97.40
2023-05-03T09:03:08.568Z,97.40
2023-05-03T09:03:53.682Z,97.40
2023-05-03T09:04:38.747Z,97.40
2023-05-03T09:05:23.573Z,97.40
2023-05-03T09:06:08.695Z,97.40
2023-05-03T09:06:53.900Z,97.40
2023-05-03T09:07:39.066Z,97.40
2023-05-03T09:08:24.012Z,97.40
2023-05-03T09:09:09.164Z,97.40
2023-05-03T09:09:53.928Z,97.40
2023-05-03T09:10:38.865Z,97.40
2023-05-03T09:11:24.741Z,97.40
2023-05-03T09:12:09.293Z,97.40
2023-05-03T09:12:54.040Z,97.40
2023-05-03T09:13:39.199Z,97.40
2023-05-03T09:14:24.402Z,97.40
2023-05-03T09:15:09.685Z,97.40
2023-05-03T09:15:54.662Z,97.40
2023-05-03T09:16:39.208Z,97.40
2023-05-03T09:17:24.166Z,231.95
2023-05-03T09:18:09.910Z,231.95
2023-05-03T09:18:54.693Z,231.95
2023-05-03T09:19:39.751Z,231.95
2023-05-03T09:20:24.573Z,231.95
2023-05-03T09:21:09.895Z,231.95
2023-05-03T09:21:54.561Z,231.95
2023-05-03T09:22:39.666Z,231.95
2023-05-03T09:23:24.859Z,231.95
2023-05-03T09:24:10.309Z,231.95
2023-05-03T09:24:54.878Z,231.95